createdAt,value
2019-02-26T00:01:48.537Z,69.47
2019-02-26T00:04:27.176Z,70.32
2019-02-26T00:07:05.726Z,78.83
2019-02-26T00:09:44.718Z,75.42
2019-02-26T00:12:24.197Z,79.47
2019-02-26T00:15:03.462Z,79.37
2019-02-26T00:17:45.256Z,100.40
2019-02-26T00:20:22.272Z,99.70
2019-02-26T00:23:02.020Z,85.12
2019-02-26T00:25:41.353Z,96.55
2019-02-26T00:28:22.076Z,98.60
2019-02-26T00:31:01.762Z,79.87
2019-02-26T00:33:41.025Z,91.80
2019-02-26T00:36:19.615Z,72.82
2019-02-26T00:39:00.257Z,79.40
2019-02-26T00:41:40.324Z,75.47
2019-02-26T00:44:21.184Z,75.47
2019-02-26T00:46:59.732Z,66.75
2019-02-26T00:49:38.651Z,66.12
2019-02-26T00:52:17.135Z,57.53
2019-02-26T00:54:57.594Z,60.95
2019-02-26T00:57:36.470Z,67.25
2019-02-26T01:00:17.290Z,58.80
2019-02-26T01:02:55.990Z,53.08
2019-02-26T01:05:36.133Z,63.80
2019-02-26T01:08:15.737Z,49.67
2019-02-26T01:10:54.333Z,45.43
2019-02-26T01:13:33.149Z,46.55
2019-02-26T01:16:11.867Z,50.95
2019-02-26T01:18:51.034Z,47.00
2019-02-26T01:21:31.126Z,69.72
2019-02-26T01:24:10.895Z,87.67
2019-02-26T01:26:49.594Z,45.52
2019-02-26T01:29:29.995Z,60.65
2019-02-26T01:32:11.033Z,46.95
2019-02-26T01:34:49.766Z,44.88
2019-02-26T01:37:29.901Z,47.08
2019-02-26T01:40:12.287Z,48.08
2019-02-26T01:42:52.210Z,48.00
2019-02-26T01:45:30.356Z,48.10
2019-02-26T01:48:11.438Z,48.17
2019-02-26T01:50:49.323Z,43.50
2019-02-26T01:53:28.033Z,46.70
2019-02-26T01:56:07.250Z,49.55
2019-02-26T01:58:45.741Z,45.85
2019-02-26T02:01:26.006Z,47.17
2019-02-26T02:04:04.041Z,51.10
2019-02-26T02:06:42.983Z,45.52
2019-02-26T02:09:24.558Z,48.58
2019-02-26T02:12:04.219Z,51.48
2019-02-26T02:14:53.799Z,46.75
2019-02-26T02:17:36.027Z,46.10
2019-02-26T02:20:24.527Z,48.40
2019-02-26T02:23:19.426Z,49.63
2019-02-26T02:26:02.209Z,52.45
2019-02-26T02:28:45.668Z,47.25
2019-02-26T02:31:30.321Z,50.85
2019-02-26T02:34:06.776Z,49.10
2019-02-26T02:36:45.915Z,47.83
2019-02-26T02:39:29.214Z,52.53
2019-02-26T02:42:22.013Z,51.37
2019-02-26T02:45:07.590Z,52.70
2019-02-26T02:47:57.839Z,52.58
2019-02-26T02:50:36.255Z,54.23
2019-02-26T02:53:17.760Z,53.45
2019-02-26T02:55:55.354Z,50.63
2019-02-26T02:58:34.769Z,53.13
2019-02-26T03:01:16.179Z,49.53
2019-02-26T03:03:56.424Z,49.40
2019-02-26T03:06:38.556Z,55.65
2019-02-26T03:09:19.802Z,51.90
2019-02-26T03:11:58.762Z,51.63
2019-02-26T03:14:42.098Z,54.27
2019-02-26T03:17:20.713Z,53.90
2019-02-26T03:20:01.630Z,55.92
2019-02-26T03:22:42.248Z,57.83
2019-02-26T03:25:22.947Z,53.33
2019-02-26T03:28:00.091Z,56.35
2019-02-26T03:30:43.615Z,55.17
2019-02-26T03:33:19.555Z,57.67
2019-02-26T03:35:58.451Z,63.60
2019-02-26T03:38:37.608Z,59.23
2019-02-26T03:41:22.234Z,58.30
2019-02-26T03:44:00.560Z,60.00
2019-02-26T03:46:38.228Z,54.35
2019-02-26T03:49:17.353Z,58.42
2019-02-26T03:51:59.443Z,56.35
2019-02-26T03:54:39.852Z,60.25
2019-02-26T03:57:16.753Z,56.18
2019-02-26T03:59:55.987Z,65.17
2019-02-26T04:02:36.754Z,57.85
2019-02-26T04:05:14.957Z,58.08
2019-02-26T04:07:55.572Z,57.90
2019-02-26T04:10:33.155Z,54.18
2019-02-26T04:13:13.207Z,57.00
2019-02-26T04:15:54.085Z,58.92
2019-02-26T04:18:34.707Z,62.08
2019-02-26T04:21:17.657Z,58.48
2019-02-26T04:23:54.034Z,55.95
2019-02-26T04:27:01.261Z,56.50
2019-02-26T04:30:16.291Z,60.10
2019-02-26T04:33:44.255Z,57.83
2019-02-26T04:37:01.424Z,63.05
2019-02-26T04:40:17.066Z,54.98
2019-02-26T04:43:44.600Z,56.48
2019-02-26T04:47:10.063Z,56.53
2019-02-26T04:49:48.694Z,60.67
2019-02-26T04:52:29.360Z,54.03
2019-02-26T04:55:07.615Z,53.95
2019-02-26T04:57:48.509Z,47.88
2019-02-26T05:00:29.739Z,52.38
2019-02-26T05:03:08.595Z,49.18
2019-02-26T05:05:51.193Z,49.95
2019-02-26T05:08:26.557Z,52.95
2019-02-26T05:11:04.664Z,54.63
2019-02-26T05:13:43.186Z,49.08
2019-02-26T05:16:21.887Z,47.58
2019-02-26T05:19:00.574Z,45.20
2019-02-26T05:21:39.556Z,45.95
2019-02-26T05:24:18.932Z,45.25
2019-02-26T05:26:58.400Z,46.50
2019-02-26T05:29:40.420Z,41.53
2019-02-26T05:32:17.041Z,42.60
2019-02-26T05:34:55.761Z,46.05
2019-02-26T05:37:37.330Z,45.40
2019-02-26T05:40:18.346Z,51.13
2019-02-26T05:42:56.145Z,45.43
2019-02-26T05:45:35.594Z,68.87
2019-02-26T05:48:16.173Z,348.15
2019-02-26T05:50:54.243Z,62.78
2019-02-26T05:53:33.642Z,43.68
2019-02-26T05:56:14.425Z,43.75
2019-02-26T05:58:52.767Z,41.65
2019-02-26T06:01:31.492Z,45.45
2019-02-26T06:04:12.343Z,40.78
2019-02-26T06:06:53.151Z,44.08
2019-02-26T06:09:33.646Z,43.98
2019-02-26T06:12:10.032Z,43.20
2019-02-26T06:14:48.890Z,104.00
2019-02-26T06:17:27.728Z,45.78
2019-02-26T06:20:13.548Z,45.63
2019-02-26T06:22:51.693Z,39.63
2019-02-26T06:25:30.547Z,39.48
2019-02-26T06:28:12.134Z,47.78
2019-02-26T06:30:49.207Z,42.95
2019-02-26T06:33:31.699Z,54.23
2019-02-26T06:36:08.168Z,42.08
2019-02-26T06:38:49.562Z,39.08
2019-02-26T06:41:26.982Z,39.13
2019-02-26T06:44:05.620Z,41.58
2019-02-26T06:46:44.531Z,38.60
2019-02-26T06:49:24.594Z,47.95
2019-02-26T06:52:03.134Z,35.58
2019-02-26T06:54:41.557Z,38.78
2019-02-26T06:57:20.310Z,36.38
2019-02-26T07:00:01.153Z,36.35
2019-02-26T07:02:39.470Z,39.70
2019-02-26T07:05:19.373Z,42.50
2019-02-26T07:07:59.575Z,44.27
2019-02-26T07:10:38.212Z,38.13
2019-02-26T07:13:16.476Z,36.50
2019-02-26T07:15:55.162Z,34.95
2019-02-26T07:18:34.144Z,42.90
2019-02-26T07:21:12.595Z,37.55
2019-02-26T07:23:52.227Z,35.98
2019-02-26T07:26:31.427Z,35.33
2019-02-26T07:29:12.616Z,33.85
2019-02-26T07:31:51.780Z,36.60
2019-02-26T07:34:30.263Z,39.73
2019-02-26T07:37:11.107Z,37.40
2019-02-26T07:39:49.695Z,35.70
2019-02-26T07:42:32.690Z,34.63
2019-02-26T07:45:15.138Z,36.90
2019-02-26T07:47:49.152Z,36.68
2019-02-26T07:50:31.399Z,39.53
2019-02-26T07:53:09.694Z,35.55
2019-02-26T07:55:49.007Z,37.48
2019-02-26T07:58:27.538Z,31.95
2019-02-26T08:01:06.314Z,33.08
2019-02-26T08:03:46.965Z,36.20
2019-02-26T08:06:29.287Z,32.48
2019-02-26T08:09:10.897Z,33.70
2019-02-26T08:11:49.070Z,39.73
2019-02-26T08:14:27.306Z,36.58
2019-02-26T08:17:06.287Z,33.28
2019-02-26T08:19:46.789Z,35.15
2019-02-26T08:22:26.984Z,33.30
2019-02-26T08:25:04.712Z,32.05
2019-02-26T08:27:43.666Z,36.77
2019-02-26T08:30:25.574Z,35.38
2019-02-26T08:33:06.763Z,31.95
2019-02-26T08:35:44.529Z,30.92
2019-02-26T08:38:23.717Z,31.77
2019-02-26T08:41:02.051Z,31.73
2019-02-26T08:43:44.115Z,32.20
2019-02-26T08:46:21.752Z,33.55
2019-02-26T08:49:08.103Z,32.15
2019-02-26T08:51:40.918Z,32.88
2019-02-26T08:54:21.279Z,34.03
2019-02-26T08:56:59.523Z,33.88
2019-02-26T08:59:39.489Z,32.95
2019-02-26T09:02:18.145Z,33.18
2019-02-26T09:04:59.129Z,33.67
2019-02-26T09:07:38.557Z,35.08
2019-02-26T09:10:22.642Z,37.20
2019-02-26T09:12:58.844Z,35.08
2019-02-26T09:15:39.032Z,35.08
2019-02-26T09:18:20.298Z,35.83
2019-02-26T09:20:57.669Z,39.05
2019-02-26T09:23:36.650Z,38.35
2019-02-26T09:26:15.426Z,40.05
2019-02-26T09:28:55.409Z,38.02
2019-02-26T09:31:34.556Z,36.53
2019-02-26T09:34:13.405Z,38.83
2019-02-26T09:36:52.953Z,36.93
2019-02-26T09:39:34.119Z,41.77
2019-02-26T09:42:11.705Z,41.05
2019-02-26T09:44:52.885Z,35.20
2019-02-26T09:47:34.554Z,41.08
2019-02-26T09:50:15.362Z,40.78
2019-02-26T09:52:56.538Z,36.30
2019-02-26T09:55:34.780Z,36.15
2019-02-26T09:58:13.435Z,37.48
2019-02-26T10:00:54.053Z,37.33
2019-02-26T10:03:36.692Z,41.35
2019-02-26T10:06:14.125Z,40.92
2019-02-26T10:08:53.320Z,38.73
2019-02-26T10:11:32.879Z,43.52
2019-02-26T10:14:12.686Z,36.35
2019-02-26T10:16:55.032Z,38.48
2019-02-26T10:19:35.550Z,37.25
2019-02-26T10:22:13.930Z,39.53
2019-02-26T10:24:57.241Z,37.98
2019-02-26T10:27:38.301Z,39.25
2019-02-26T10:30:18.539Z,37.13
2019-02-26T10:33:02.849Z,37.85
2019-02-26T10:35:44.310Z,35.65
2019-02-26T10:38:24.086Z,36.75
2019-02-26T10:41:01.896Z,41.92
2019-02-26T10:43:40.771Z,36.58
2019-02-26T10:46:19.673Z,41.20
2019-02-26T10:48:59.907Z,36.63
2019-02-26T10:51:42.408Z,36.38
2019-02-26T10:54:18.598Z,40.40
2019-02-26T10:56:59.690Z,39.23
2019-02-26T10:59:37.337Z,36.40
2019-02-26T11:02:22.119Z,44.20
2019-02-26T11:05:01.386Z,48.75
2019-02-26T11:07:40.987Z,40.80
2019-02-26T11:10:21.014Z,59.38
2019-02-26T11:13:00.225Z,38.58
2019-02-26T11:15:39.122Z,45.17
2019-02-26T11:18:18.703Z,51.80
2019-02-26T11:20:59.283Z,63.70
2019-02-26T11:23:38.837Z,68.83
2019-02-26T11:26:18.929Z,56.08
2019-02-26T11:28:57.463Z,54.20
2019-02-26T11:31:36.466Z,46.33
2019-02-26T11:34:16.313Z,55.50
2019-02-26T11:36:56.121Z,42.23
2019-02-26T11:39:35.106Z,45.23
2019-02-26T11:42:15.848Z,42.90
2019-02-26T11:44:54.015Z,51.65
2019-02-26T11:47:36.346Z,61.45
2019-02-26T11:50:14.102Z,62.78
2019-02-26T11:52:54.991Z,66.25
2019-02-26T11:55:36.872Z,65.80
2019-02-26T11:58:15.734Z,65.97
2019-02-26T12:00:58.000Z,58.40
2019-02-26T12:03:38.928Z,57.30
2019-02-26T12:06:16.730Z,60.92
2019-02-26T12:08:55.839Z,59.73
2019-02-26T12:11:33.948Z,63.92
2019-02-26T12:14:13.744Z,61.35
2019-02-26T12:16:52.286Z,58.55
2019-02-26T12:19:34.269Z,55.45
2019-02-26T12:22:12.005Z,54.75
2019-02-26T12:24:55.702Z,57.80
2019-02-26T12:27:32.472Z,61.37
2019-02-26T12:30:13.325Z,57.43
2019-02-26T12:32:55.157Z,58.20
2019-02-26T12:35:33.867Z,58.55
2019-02-26T12:38:20.627Z,51.02
2019-02-26T12:40:53.558Z,49.45
2019-02-26T12:43:33.232Z,47.93
2019-02-26T12:46:12.360Z,50.00
2019-02-26T12:48:51.950Z,50.28
2019-02-26T12:51:31.742Z,49.18
2019-02-26T12:54:13.712Z,49.77
2019-02-26T12:56:52.312Z,47.48
2019-02-26T12:59:30.912Z,49.00
2019-02-26T13:02:12.873Z,51.98
2019-02-26T13:04:51.094Z,64.75
2019-02-26T13:07:30.338Z,51.55
2019-02-26T13:10:09.208Z,52.30
2019-02-26T13:12:52.934Z,50.73
2019-02-26T13:15:28.159Z,49.50
2019-02-26T13:18:07.315Z,60.90
2019-02-26T13:20:52.120Z,57.88
2019-02-26T13:23:27.637Z,53.78
2019-02-26T13:26:10.305Z,52.03
2019-02-26T13:28:52.798Z,52.62
2019-02-26T13:31:41.713Z,91.05
2019-02-26T13:34:15.361Z,49.80
2019-02-26T13:36:56.778Z,54.18
2019-02-26T13:39:38.441Z,54.08
2019-02-26T13:42:19.145Z,60.38
2019-02-26T13:44:54.181Z,58.50
2019-02-26T13:47:33.445Z,58.90
2019-02-26T13:50:13.141Z,55.95
2019-02-26T13:52:52.525Z,55.05
2019-02-26T13:55:31.441Z,59.75
2019-02-26T13:58:11.890Z,56.85
2019-02-26T14:00:50.299Z,58.83
2019-02-26T14:03:29.151Z,62.30
2019-02-26T14:06:08.025Z,60.80
2019-02-26T14:08:46.723Z,57.80
2019-02-26T14:11:25.250Z,58.90
2019-02-26T14:14:04.102Z,57.27
2019-02-26T14:16:43.063Z,59.05
2019-02-26T14:19:21.817Z,53.85
2019-02-26T14:22:00.443Z,55.67
2019-02-26T14:24:40.139Z,60.98
2019-02-26T14:27:18.331Z,60.75
2019-02-26T14:29:56.883Z,55.35
2019-02-26T14:32:35.950Z,58.68
2019-02-26T14:35:16.137Z,61.37
2019-02-26T14:37:55.730Z,62.93
2019-02-26T14:40:34.482Z,59.38
2019-02-26T14:43:13.518Z,61.40
2019-02-26T14:45:52.482Z,65.52
2019-02-26T14:48:31.358Z,63.23
2019-02-26T14:51:09.802Z,62.15
2019-02-26T14:53:49.252Z,65.28
2019-02-26T14:56:28.321Z,60.03
2019-02-26T14:59:06.806Z,57.98
2019-02-26T15:01:45.760Z,60.70
2019-02-26T15:04:24.484Z,65.78
2019-02-26T15:07:03.492Z,64.87
2019-02-26T15:09:42.663Z,63.98
2019-02-26T15:12:21.142Z,63.70
2019-02-26T15:14:59.830Z,67.05
2019-02-26T15:17:40.828Z,71.12
2019-02-26T15:20:21.228Z,71.25
2019-02-26T15:22:59.897Z,71.62
2019-02-26T15:25:39.012Z,68.57
2019-02-26T15:28:18.097Z,70.55
2019-02-26T15:30:56.917Z,73.57
2019-02-26T15:33:35.849Z,75.83
2019-02-26T15:36:14.547Z,75.00
2019-02-26T15:38:53.626Z,76.25
2019-02-26T15:41:34.094Z,73.07
2019-02-26T15:44:12.054Z,74.82
2019-02-26T15:46:51.976Z,71.65
2019-02-26T15:49:31.172Z,71.97
2019-02-26T15:52:09.526Z,73.17
2019-02-26T15:54:49.324Z,76.62
2019-02-26T15:57:28.592Z,78.42
2019-02-26T16:00:07.786Z,73.52
2019-02-26T16:02:46.714Z,81.05
2019-02-26T16:05:26.034Z,77.55
2019-02-26T16:08:05.674Z,82.80
2019-02-26T16:10:44.397Z,77.90
2019-02-26T16:13:23.580Z,77.85
2019-02-26T16:16:01.767Z,79.32
2019-02-26T16:18:40.262Z,78.10
2019-02-26T16:21:19.476Z,75.52
2019-02-26T16:23:57.943Z,74.03
2019-02-26T16:26:40.731Z,70.00
2019-02-26T16:29:16.613Z,71.35
2019-02-26T16:31:57.263Z,78.17
2019-02-26T16:34:35.666Z,88.00
2019-02-26T16:37:15.352Z,76.40
2019-02-26T16:39:56.029Z,71.85
2019-02-26T16:42:34.796Z,70.50
2019-02-26T16:45:15.496Z,74.45
2019-02-26T16:47:54.707Z,66.92
2019-02-26T16:50:33.268Z,68.97
2019-02-26T16:53:12.156Z,68.65
2019-02-26T16:55:51.067Z,70.08
2019-02-26T16:58:29.706Z,69.12
2019-02-26T17:01:09.079Z,65.42
2019-02-26T17:03:47.858Z,65.90
2019-02-26T17:06:26.605Z,68.35
2019-02-26T17:09:05.284Z,72.92
2019-02-26T17:11:47.075Z,72.22
2019-02-26T17:14:25.694Z,74.67
2019-02-26T17:17:04.832Z,72.92
2019-02-26T17:19:43.476Z,78.33
2019-02-26T17:22:22.344Z,89.05
2019-02-26T17:25:01.228Z,90.38
2019-02-26T17:27:40.161Z,90.72
2019-02-26T17:30:20.857Z,83.25
2019-02-26T17:32:59.227Z,77.60
2019-02-26T17:35:37.784Z,88.55
2019-02-26T17:38:18.141Z,89.03
2019-02-26T17:40:56.826Z,82.78
2019-02-26T17:43:36.775Z,85.55
2019-02-26T17:46:15.157Z,89.62
2019-02-26T17:48:53.863Z,92.17
2019-02-26T17:51:32.614Z,97.08
2019-02-26T17:54:10.890Z,95.10
2019-02-26T17:56:50.389Z,97.37
2019-02-26T17:59:29.406Z,89.80
2019-02-26T18:02:08.415Z,90.00
2019-02-26T18:04:46.847Z,96.97
2019-02-26T18:07:25.201Z,95.15
2019-02-26T18:10:04.054Z,93.67
2019-02-26T18:12:43.293Z,93.72
2019-02-26T18:15:22.645Z,101.65
2019-02-26T18:18:01.277Z,94.58
2019-02-26T18:20:40.791Z,95.35
2019-02-26T18:23:19.416Z,95.42
2019-02-26T18:25:58.526Z,92.85
2019-02-26T18:28:37.463Z,93.62
2019-02-26T18:31:16.022Z,91.40
2019-02-26T18:33:54.941Z,97.25
2019-02-26T18:36:33.495Z,95.07
2019-02-26T18:39:13.724Z,97.33
2019-02-26T18:41:52.718Z,91.15
2019-02-26T18:44:31.625Z,98.10
2019-02-26T18:47:10.241Z,90.00
2019-02-26T18:49:48.989Z,100.55
2019-02-26T18:52:27.975Z,87.22
2019-02-26T18:55:07.544Z,93.05
2019-02-26T18:57:47.387Z,92.05
2019-02-26T19:00:29.325Z,95.45
2019-02-26T19:03:09.532Z,92.35
2019-02-26T19:05:53.704Z,85.38
2019-02-26T19:08:30.098Z,84.87
2019-02-26T19:11:08.649Z,90.60
2019-02-26T19:13:47.890Z,80.95
2019-02-26T19:16:26.425Z,89.32
2019-02-26T19:19:06.743Z,86.65
2019-02-26T19:21:45.623Z,79.60
2019-02-26T19:24:24.262Z,85.17
2019-02-26T19:27:02.925Z,82.72
2019-02-26T19:29:41.545Z,87.97
2019-02-26T19:32:22.063Z,95.45
2019-02-26T19:35:01.016Z,88.65
2019-02-26T19:37:40.466Z,89.05
2019-02-26T19:40:21.190Z,92.42
2019-02-26T19:43:00.509Z,96.08
2019-02-26T19:45:39.243Z,101.10
2019-02-26T19:48:18.024Z,96.55
2019-02-26T19:50:56.662Z,100.18
2019-02-26T19:53:35.760Z,100.82
2019-02-26T19:56:14.680Z,95.75
2019-02-26T19:58:53.382Z,91.02
2019-02-26T20:01:32.260Z,97.05
2019-02-26T20:04:12.120Z,93.07
2019-02-26T20:06:50.696Z,101.38
2019-02-26T20:09:29.507Z,91.75
2019-02-26T20:12:10.007Z,106.12
2019-02-26T20:14:49.007Z,98.55
2019-02-26T20:17:28.071Z,92.00
2019-02-26T20:20:06.670Z,92.95
2019-02-26T20:22:45.561Z,93.92
2019-02-26T20:26:16.054Z,96.15
2019-02-26T20:28:53.488Z,76.70
2019-02-26T20:31:32.218Z,80.05
2019-02-26T20:34:11.447Z,88.92
2019-02-26T20:36:51.198Z,84.35
2019-02-26T20:39:30.386Z,84.00
2019-02-26T20:42:09.412Z,84.80
2019-02-26T20:44:49.092Z,89.80
2019-02-26T20:47:31.276Z,92.50
2019-02-26T20:50:08.078Z,89.80
2019-02-26T20:52:47.030Z,84.15
2019-02-26T20:55:26.710Z,84.22
2019-02-26T20:58:05.713Z,89.97
2019-02-26T21:00:44.516Z,88.22
2019-02-26T21:03:23.608Z,90.10
2019-02-26T21:06:02.245Z,88.45
2019-02-26T21:08:41.662Z,85.03
2019-02-26T21:11:23.228Z,94.13
2019-02-26T21:14:00.567Z,94.15
2019-02-26T21:16:39.266Z,86.55
2019-02-26T21:19:17.959Z,87.78
2019-02-26T21:21:56.584Z,83.65
2019-02-26T21:24:35.286Z,86.45
2019-02-26T21:27:14.036Z,89.40
2019-02-26T21:29:53.189Z,91.67
2019-02-26T21:32:31.859Z,92.40
2019-02-26T21:35:11.016Z,87.50
2019-02-26T21:37:50.746Z,90.97
2019-02-26T21:40:29.570Z,82.08
2019-02-26T21:43:08.314Z,83.72
2019-02-26T21:45:49.106Z,90.05
2019-02-26T21:48:26.700Z,82.85
2019-02-26T21:51:06.774Z,83.17
2019-02-26T21:53:46.677Z,86.10
2019-02-26T21:56:24.932Z,79.25
2019-02-26T21:59:03.717Z,81.97
2019-02-26T22:01:45.851Z,85.22
2019-02-26T22:04:22.116Z,86.42
2019-02-26T22:07:01.455Z,84.45
2019-02-26T22:09:40.123Z,84.72
2019-02-26T22:12:21.903Z,83.10
2019-02-26T22:14:59.512Z,85.87
2019-02-26T22:17:38.044Z,88.92
2019-02-26T22:20:26.638Z,83.50
2019-02-26T22:23:00.398Z,89.52
2019-02-26T22:25:38.809Z,82.57
2019-02-26T22:28:17.439Z,81.12
2019-02-26T22:30:56.501Z,89.20
2019-02-26T22:33:35.459Z,86.80
2019-02-26T22:36:14.306Z,88.37
2019-02-26T22:38:53.088Z,85.53
2019-02-26T22:41:32.832Z,87.72
2019-02-26T22:44:11.949Z,87.45
2019-02-26T22:46:50.998Z,94.20
2019-02-26T22:49:29.589Z,93.70
2019-02-26T22:52:08.571Z,90.22
2019-02-26T22:54:47.338Z,85.50
2019-02-26T22:57:27.601Z,85.55
2019-02-26T23:00:08.176Z,92.72
2019-02-26T23:02:48.366Z,91.47
2019-02-26T23:05:27.197Z,82.72
2019-02-26T23:08:06.975Z,90.30
2019-02-26T23:10:45.931Z,87.37
2019-02-26T23:13:25.421Z,90.47
2019-02-26T23:16:04.513Z,91.63
2019-02-26T23:18:44.252Z,93.30
2019-02-26T23:21:23.597Z,87.90
2019-02-26T23:24:02.934Z,87.95
2019-02-26T23:26:42.535Z,87.67
2019-02-26T23:29:21.729Z,86.92
2019-02-26T23:32:00.448Z,98.37
2019-02-26T23:34:42.119Z,96.67
2019-02-26T23:37:20.531Z,93.47
2019-02-26T23:39:58.978Z,96.47
2019-02-26T23:42:39.598Z,98.10
2019-02-26T23:45:34.051Z,101.87
2019-02-26T23:48:12.962Z,103.58
2019-02-26T23:50:51.864Z,109.42
2019-02-26T23:53:33.911Z,95.67
2019-02-26T23:56:10.642Z,109.00
2019-02-26T23:58:49.567Z,123.33
